Time;durP1;ratioP1;P1;durP2;ratioP2;P2;SDS_P1;SDS_P2;PMS_P1;PMS_P2;Temp;Humidity;BMP_temperature;BMP_pressure;BME280_temperature;BME280_humidity;BME280_pressure;Samples;Min_cycle;Max_cycle;Signal;HPM_P1;HPM_P2
2021/06/29 00:02:39;;;;;;;5.82;3.22;;;28.10;78.30;;;;;;5149310;27;20377;-48
2021/06/29 00:05:46;;;;;;;6.85;3.28;;;28.00;79.20;;;;;;5123758;27;20409;-48
2021/06/29 00:08:23;;;;;;;4.88;2.97;;;28.00;79.70;;;;;;4522944;27;17902629;-47
2021/06/29 00:11:20;;;;;;;9.23;2.90;;;28.00;80.00;;;;;;5140892;27;20914;-47
2021/06/29 00:14:17;;;;;;;3.67;2.05;;;28.00;79.90;;;;;;5187101;27;20412;-48
2021/06/29 00:17:13;;;;;;;5.20;2.25;;;28.00;80.30;;;;;;5193476;27;20857;-49
2021/06/29 00:20:20;;;;;;;7.70;3.03;;;28.00;80.80;;;;;;5140266;27;20979;-47
2021/06/29 00:23:16;;;;;;;4.90;2.20;;;27.90;81.50;;;;;;5191504;27;20386;-48
2021/06/29 00:26:10;;;;;;;4.32;2.30;;;27.80;82.40;;;;;;5093405;27;20413;-48
2021/06/29 00:29:07;;;;;;;5.85;1.85;;;27.70;83.10;;;;;;5180272;27;20408;-48
2021/06/29 00:31:59;;;;;;;3.50;2.28;;;27.60;84.30;;;;;;5102919;27;20402;-47
2021/06/29 00:34:52;;;;;;;10.27;2.08;;;27.70;84.70;;;;;;5095389;27;20421;-47
2021/06/29 00:37:50;;;;;;;5.25;2.22;;;27.60;85.50;;;;;;5115038;27;20406;-47
2021/06/29 00:40:29;;;;;;;7.15;2.63;;;27.40;86.80;;;;;;4497006;27;18756572;-47
2021/06/29 00:43:31;;;;;;;5.30;2.10;;;27.40;87.60;;;;;;5118301;27;20776;-47
2021/06/29 00:46:28;;;;;;;4.28;1.83;;;27.20;89.20;;;;;;5194004;27;20393;-47
2021/06/29 00:49:29;;;;;;;3.75;1.92;;;27.20;90.20;;;;;;5113582;27;20424;-47
2021/06/29 00:52:35;;;;;;;6.05;2.20;;;27.30;90.30;;;;;;5133518;27;20419;-47
2021/06/29 00:55:27;;;;;;;6.00;2.28;;;27.20;90.70;;;;;;5091184;27;20913;-49
2021/06/29 00:58:24;;;;;;;4.68;2.92;;;27.20;90.90;;;;;;5192267;27;20408;-47
2021/06/29 01:01:20;;;;;;;5.07;2.58;;;27.40;91.10;;;;;;5182838;27;20384;-47
2021/06/29 01:04:13;;;;;;;7.85;2.85;;;27.50;91.30;;;;;;5096196;27;20424;-51
2021/06/29 01:07:12;;;;;;;5.22;1.90;;;27.60;91.40;;;;;;5081710;27;20411;-49
2021/06/29 01:10:09;;;;;;;4.22;1.95;;;27.50;91.70;;;;;;5186324;27;20394;-48
2021/06/29 01:13:08;;;;;;;7.25;2.90;;;27.40;92.20;;;;;;5113726;27;20402;-47
2021/06/29 01:16:07;;;;;;;6.82;2.60;;;27.30;92.60;;;;;;5106216;27;20412;-49
2021/06/29 01:19:04;;;;;;;5.45;2.25;;;27.10;93.20;;;;;;5187114;27;20768;-47
2021/06/29 01:22:02;;;;;;;5.88;2.17;;;26.90;93.90;;;;;;5193222;27;20415;-48
2021/06/29 01:24:59;;;;;;;3.67;2.10;;;26.80;94.20;;;;;;5187014;27;20402;-47
2021/06/29 01:31:07;;;;;;;5.18;2.10;;;26.80;94.70;;;;;;5093285;27;20501;-47
2021/06/29 01:34:05;;;;;;;10.30;2.53;;;26.90;94.80;;;;;;5187127;27;20407;-47
2021/06/29 01:37:17;;;;;;;5.38;2.13;;;27.00;94.80;;;;;;5149068;27;20893;-49
2021/06/29 01:40:26;;;;;;;8.13;2.20;;;27.10;94.90;;;;;;5112108;27;20420;-49
2021/06/29 01:43:40;;;;;;;6.70;2.67;;;27.00;95.10;;;;;;5149694;27;20484;-47
2021/06/29 01:46:39;;;;;;;9.15;3.42;;;26.80;95.70;;;;;;5194155;27;20379;-47
2021/06/29 01:49:35;;;;;;;4.53;2.58;;;26.80;95.80;;;;;;5187162;27;20401;-47
2021/06/29 01:52:31;;;;;;;7.97;2.35;;;27.00;95.50;;;;;;5193474;27;20427;-47
2021/06/29 01:55:28;;;;;;;11.95;4.13;;;27.00;95.30;;;;;;5181599;27;20413;-47
2021/06/29 01:58:28;;;;;;;9.52;2.88;;;27.00;95.50;;;;;;5113299;27;20442;-48
2021/06/29 02:01:26;;;;;;;8.23;2.30;;;27.00;95.60;;;;;;5193836;27;20377;-47
2021/06/29 02:04:24;;;;;;;7.72;3.10;;;26.90;95.70;;;;;;5187231;27;20402;-47
2021/06/29 02:07:20;;;;;;;5.35;2.47;;;26.90;95.90;;;;;;5193596;27;20390;-47
2021/06/29 02:10:17;;;;;;;7.40;2.17;;;26.90;95.90;;;;;;5091475;27;20511;-47
2021/06/29 02:13:13;;;;;;;6.85;3.28;;;27.00;95.90;;;;;;5191500;27;20876;-47
2021/06/29 02:16:08;;;;;;;6.78;2.28;;;27.10;95.60;;;;;;5091331;27;20407;-47
2021/06/29 02:19:09;;;;;;;7.97;2.65;;;27.10;95.70;;;;;;5187111;27;20893;-47
2021/06/29 02:22:08;;;;;;;5.80;2.40;;;27.10;95.70;;;;;;5194083;27;20378;-47
2021/06/29 02:25:01;;;;;;;5.93;2.70;;;27.00;96.00;;;;;;5095548;27;20415;-47
2021/06/29 02:27:57;;;;;;;10.18;2.42;;;27.10;96.10;;;;;;5191152;27;20381;-49
2021/06/29 02:30:52;;;;;;;6.50;2.60;;;26.80;96.70;;;;;;5091043;27;20499;-48
2021/06/29 02:33:48;;;;;;;4.20;2.45;;;26.80;96.90;;;;;;5188831;27;20407;-46
2021/06/29 02:36:44;;;;;;;8.70;2.70;;;26.60;97.40;;;;;;5194130;27;20390;-47
2021/06/29 02:39:37;;;;;;;10.98;3.15;;;26.50;98.10;;;;;;5095816;27;20410;-47
2021/06/29 02:42:36;;;;;;;5.93;2.50;;;26.30;98.50;;;;;;5114737;27;20429;-47
2021/06/29 02:45:37;;;;;;;4.38;2.13;;;26.30;99.00;;;;;;5111488;27;20420;-47
2021/06/29 02:48:34;;;;;;;9.60;3.65;;;26.10;99.20;;;;;;5191264;27;20405;-47
2021/06/29 02:51:30;;;;;;;10.50;3.35;;;26.00;99.70;;;;;;5193891;27;20378;-47
2021/06/29 02:54:25;;;;;;;5.97;3.10;;;26.00;99.90;;;;;;5187028;27;20406;-47
2021/06/29 02:57:21;;;;;;;7.97;2.50;;;26.10;99.90;;;;;;5193311;27;20389;-47
2021/06/29 03:00:20;;;;;;;6.07;2.70;;;26.20;99.90;;;;;;5105795;27;20426;-47
2021/06/29 03:03:16;;;;;;;11.80;2.90;;;26.30;99.90;;;;;;5191517;27;20767;-47
2021/06/29 03:06:12;;;;;;;8.63;2.70;;;26.40;99.60;;;;;;5184177;27;20441;-47
2021/06/29 03:09:08;;;;;;;10.50;3.70;;;26.50;99.40;;;;;;5093975;27;20427;-47
2021/06/29 03:12:04;;;;;;;5.97;2.63;;;26.50;99.50;;;;;;5193400;27;20830;-47
2021/06/29 03:15:02;;;;;;;6.75;2.80;;;26.60;99.40;;;;;;5186892;27;20451;-47
2021/06/29 03:17:58;;;;;;;7.13;3.15;;;26.70;99.40;;;;;;5193203;27;20877;-47
2021/06/29 03:20:36;;;;;;;8.25;2.60;;;26.60;99.60;;;;;;4499230;27;18663978;-46
2021/06/29 03:23:32;;;;;;;7.45;2.90;;;26.50;99.90;;;;;;5098267;27;20470;-47
2021/06/29 03:26:27;;;;;;;5.47;3.00;;;26.50;99.90;;;;;;5099859;27;20402;-47
2021/06/29 03:29:24;;;;;;;8.00;2.90;;;26.60;99.90;;;;;;5178022;27;20411;-47
2021/06/29 03:32:20;;;;;;;13.80;3.47;;;26.60;99.90;;;;;;5193900;27;20382;-48
2021/06/29 03:35:21;;;;;;;6.80;2.70;;;26.60;99.90;;;;;;5111382;27;20513;-47
2021/06/29 03:38:18;;;;;;;6.10;3.17;;;26.60;99.90;;;;;;5192024;27;20412;-47
2021/06/29 03:41:13;;;;;;;8.27;3.45;;;26.60;99.90;;;;;;5141700;27;20437;-47
2021/06/29 03:44:09;;;;;;;8.32;2.97;;;26.50;99.90;;;;;;5186901;27;20399;-48
2021/06/29 03:47:29;;;;;;;10.95;3.88;;;26.30;99.90;;;;;;5102235;27;20406;-46
2021/06/29 03:50:26;;;;;;;10.10;3.22;;;26.30;99.90;;;;;;5182322;27;20822;-47
2021/06/29 03:53:03;;;;;;;6.97;3.10;;;26.40;99.90;;;;;;4054286;27;30139829;-47
2021/06/29 03:56:00;;;;;;;10.88;4.60;;;26.60;99.90;;;;;;5185959;27;20881;-47
2021/06/29 03:59:08;;;;;;;11.40;4.78;;;26.60;99.90;;;;;;5126203;27;20564;-47
2021/06/29 04:02:09;;;;;;;11.10;3.45;;;26.60;99.90;;;;;;5120260;27;20409;-46
2021/06/29 04:05:16;;;;;;;14.95;4.65;;;26.80;99.90;;;;;;5112547;27;20413;-47
2021/06/29 04:08:09;;;;;;;11.85;4.00;;;26.90;99.90;;;;;;5101146;27;20406;-47
2021/06/29 04:11:02;;;;;;;8.38;3.15;;;27.10;99.90;;;;;;5094599;27;20415;-46
2021/06/29 04:13:59;;;;;;;10.55;3.15;;;27.20;99.90;;;;;;5186699;27;20765;-46
2021/06/29 04:16:56;;;;;;;12.05;3.53;;;27.40;99.90;;;;;;5193751;27;20874;-47
2021/06/29 04:19:51;;;;;;;10.32;3.65;;;27.50;99.90;;;;;;5186964;27;20489;-47
2021/06/29 04:22:47;;;;;;;5.82;2.45;;;27.60;99.90;;;;;;5194133;27;20419;-48
2021/06/29 04:25:42;;;;;;;9.13;3.25;;;27.50;99.90;;;;;;5014909;28;20432;-47
2021/06/29 04:28:40;;;;;;;6.22;3.97;;;27.40;99.90;;;;;;5185023;27;20411;-48
2021/06/29 04:31:36;;;;;;;10.25;3.53;;;27.40;99.90;;;;;;5099830;27;20495;-47
2021/06/29 04:34:32;;;;;;;10.40;2.88;;;27.20;99.90;;;;;;5187006;27;20446;-47
2021/06/29 04:37:28;;;;;;;8.77;3.33;;;27.10;99.90;;;;;;5193857;27;20455;-46
2021/06/29 04:40:24;;;;;;;12.07;3.58;;;27.20;99.90;;;;;;5185214;27;20390;-46
2021/06/29 04:43:01;;;;;;;14.18;3.75;;;27.20;99.90;;;;;;4622794;27;15075047;-49
2021/06/29 04:45:58;;;;;;;9.15;3.35;;;27.20;99.90;;;;;;5185602;27;20372;-46
2021/06/29 04:48:54;;;;;;;6.22;3.33;;;27.40;99.90;;;;;;5094627;27;20840;-47
2021/06/29 04:51:51;;;;;;;8.43;3.63;;;27.60;99.90;;;;;;5193991;27;20411;-47
2021/06/29 04:54:49;;;;;;;7.32;3.28;;;27.60;99.90;;;;;;5187576;27;20458;-47
2021/06/29 04:57:46;;;;;;;9.73;3.78;;;27.70;99.90;;;;;;5194170;27;20374;-47
2021/06/29 05:00:43;;;;;;;19.67;4.22;;;27.60;99.90;;;;;;5093123;27;20413;-47
2021/06/29 05:03:45;;;;;;;15.23;4.30;;;27.70;99.90;;;;;;5116076;27;20431;-47
2021/06/29 05:06:49;;;;;;;9.75;4.47;;;27.90;99.90;;;;;;5133543;27;20433;-47
2021/06/29 05:09:46;;;;;;;7.43;3.83;;;27.90;99.90;;;;;;5187328;27;20406;-48
2021/06/29 05:12:43;;;;;;;11.73;5.05;;;27.80;99.90;;;;;;5194201;27;20419;-47
2021/06/29 05:15:36;;;;;;;12.63;4.78;;;27.70;99.90;;;;;;5093345;27;20420;-47
2021/06/29 05:18:33;;;;;;;8.77;3.63;;;27.80;99.90;;;;;;5190712;27;20401;-47
2021/06/29 05:21:30;;;;;;;11.70;4.05;;;27.90;99.90;;;;;;5193669;27;20386;-47
2021/06/29 05:24:25;;;;;;;13.50;5.45;;;28.10;99.90;;;;;;5094303;27;20421;-47
2021/06/29 05:27:22;;;;;;;16.33;6.57;;;28.20;99.60;;;;;;5194129;27;20747;-47
2021/06/29 05:29:59;;;;;;;12.25;4.50;;;28.30;99.40;;;;;;4278064;27;24090875;-47
2021/06/29 05:32:56;;;;;;;11.73;4.97;;;28.30;99.30;;;;;;5193120;27;20382;-47
2021/06/29 05:35:53;;;;;;;14.52;4.47;;;28.60;98.90;;;;;;5184722;27;20385;-48
2021/06/29 05:38:48;;;;;;;11.43;4.05;;;28.70;98.30;;;;;;5189108;27;20415;-48
2021/06/29 05:41:56;;;;;;;11.30;4.00;;;28.80;98.20;;;;;;5150378;27;20442;-47
2021/06/29 05:44:50;;;;;;;12.60;4.40;;;28.60;98.30;;;;;;5094248;27;20411;-47
2021/06/29 05:47:48;;;;;;;12.98;5.18;;;28.70;98.20;;;;;;5194395;27;20382;-47
2021/06/29 05:50:26;;;;;;;11.40;3.97;;;28.90;97.90;;;;;;4373802;27;21096783;-47
2021/06/29 05:53:37;;;;;;;11.15;4.20;;;29.10;97.60;;;;;;5147184;27;20418;-47
2021/06/29 05:56:33;;;;;;;12.32;4.78;;;28.90;97.60;;;;;;5194474;27;20743;-47
2021/06/29 05:59:37;;;;;;;;;;;29.20;97.60;;;;;;5127924;27;20921;-47
2021/06/29 06:02:32;;;;;;;14.48;5.38;;;29.50;96.90;;;;;;5194341;27;20433;-47
2021/06/29 06:05:28;;;;;;;;;;;29.80;96.40;;;;;;5182712;27;20410;-47
2021/06/29 06:08:26;;;;;;;12.98;3.70;;;30.10;95.90;;;;;;5150459;27;20383;-47
2021/06/29 06:11:24;;;;;;;10.85;4.30;;;30.10;95.30;;;;;;5104012;27;20496;-47
2021/06/29 06:14:17;;;;;;;;;;;30.30;94.70;;;;;;5096911;27;20423;-47
2021/06/29 06:17:27;;;;;;;;;;;30.40;94.40;;;;;;5150491;27;20425;-47
2021/06/29 06:20:33;;;;;;;;;;;30.70;94.00;;;;;;5125727;27;20405;-48
2021/06/29 06:23:29;;;;;;;;;;;30.80;93.50;;;;;;5192269;27;20396;-48
2021/06/29 06:26:30;;;;;;;;;;;30.80;93.60;;;;;;5100832;27;20351;-47
2021/06/29 06:29:35;;;;;;;;;;;30.90;93.30;;;;;;5118275;27;20776;-47
2021/06/29 06:32:36;;;;;;;;;;;31.10;92.70;;;;;;5100869;27;20597;-47
2021/06/29 06:35:38;;;;;;;;;;;31.20;92.60;;;;;;5112441;27;20415;-47
2021/06/29 06:38:34;;;;;;;;;;;31.40;91.70;;;;;;5098414;27;20501;-47
2021/06/29 06:41:31;;;;;;;16.63;4.78;;;31.60;91.00;;;;;;5194367;27;20394;-47
2021/06/29 06:44:26;;;;;;;;;;;31.60;90.50;;;;;;5187980;27;20402;-47
2021/06/29 06:47:23;;;;;;;;;;;31.70;90.30;;;;;;5152759;27;20293;-47
2021/06/29 06:50:21;;;;;;;10.70;4.30;;;31.60;90.50;;;;;;5185020;27;20401;-47
2021/06/29 06:53:17;;;;;;;27.00;5.28;;;31.80;90.40;;;;;;5191872;27;20407;-49
2021/06/29 06:56:28;;;;;;;9.85;4.05;;;32.20;90.20;;;;;;5150621;27;20389;-47
2021/06/29 06:59:22;;;;;;;15.98;5.10;;;32.70;88.60;;;;;;5094046;27;20417;-47
2021/06/29 07:02:00;;;;;;;13.98;4.32;;;32.90;86.20;;;;;;4497090;27;18549377;-48
2021/06/29 07:04:59;;;;;;;14.30;4.75;;;32.70;86.10;;;;;;5108469;27;20425;-47
2021/06/29 07:07:56;;;;;;;15.10;4.72;;;32.90;86.20;;;;;;5194113;27;20382;-48
2021/06/29 07:11:04;;;;;;;11.98;4.25;;;32.90;84.70;;;;;;5141816;27;20756;-46
2021/06/29 07:14:01;;;;;;;17.60;5.45;;;32.90;85.50;;;;;;5187494;27;20404;-47
2021/06/29 07:16:56;;;;;;;13.25;4.00;;;33.10;85.50;;;;;;5194287;27;20390;-47
2021/06/29 07:19:54;;;;;;;12.77;4.28;;;33.40;84.20;;;;;;5187302;27;20904;-47
2021/06/29 07:22:35;;;;;;;14.27;4.50;;;33.80;81.90;;;;;;5152432;27;20457;-46
2021/06/29 07:25:14;;;;;;;13.20;5.45;;;33.90;80.50;;;;;;5144073;27;20377;-47
2021/06/29 07:27:54;;;;;;;8.38;3.60;;;34.00;81.20;;;;;;5151484;27;20381;-47
2021/06/29 07:30:35;;;;;;;11.93;4.18;;;34.20;80.50;;;;;;5143723;27;20379;-46
2021/06/29 07:33:13;;;;;;;19.67;5.07;;;33.90;79.40;;;;;;5103281;27;1419251;-47
2021/06/29 07:35:56;;;;;;;16.42;5.25;;;34.20;79.70;;;;;;5151336;27;20109;-47
2021/06/29 07:38:36;;;;;;;16.00;5.32;;;34.50;78.00;;;;;;5108488;27;20399;-47
2021/06/29 07:41:20;;;;;;;12.63;5.95;;;34.70;78.20;;;;;;5100489;27;20381;-46
2021/06/29 07:44:03;;;;;;;16.55;5.30;;;34.80;77.80;;;;;;5064554;28;20732;-47
2021/06/29 07:46:44;;;;;;;12.32;5.35;;;35.10;77.00;;;;;;5111405;27;20421;-47
2021/06/29 07:49:25;;;;;;;15.20;5.55;;;35.30;75.30;;;;;;5104464;27;20445;-46
2021/06/29 07:52:05;;;;;;;22.13;4.75;;;35.30;73.00;;;;;;5110909;27;20429;-46
2021/06/29 07:54:44;;;;;;;14.63;4.97;;;35.40;71.50;;;;;;5145604;27;20393;-46
2021/06/29 07:57:24;;;;;;;16.25;6.60;;;35.50;71.30;;;;;;5152195;27;20377;-47
2021/06/29 08:00:07;;;;;;;13.82;4.75;;;35.60;71.40;;;;;;5104491;27;20469;-47
2021/06/29 08:02:49;;;;;;;25.02;5.65;;;35.80;70.70;;;;;;5152478;27;20368;-47
2021/06/29 08:05:29;;;;;;;18.13;6.18;;;35.90;70.80;;;;;;5140237;27;20504;-47
2021/06/29 08:08:09;;;;;;;19.45;5.60;;;35.60;70.90;;;;;;5084740;28;20428;-47
2021/06/29 08:10:52;;;;;;;16.15;5.53;;;35.60;70.60;;;;;;5061378;27;20505;-47
2021/06/29 08:13:34;;;;;;;13.98;5.70;;;35.60;70.90;;;;;;5120854;27;20397;-47
2021/06/29 08:16:13;;;;;;;15.80;5.25;;;35.40;68.90;;;;;;5142464;27;20387;-47
2021/06/29 08:18:54;;;;;;;13.27;5.38;;;35.40;69.90;;;;;;5146298;27;20390;-47
2021/06/29 08:21:34;;;;;;;15.43;4.90;;;35.20;71.20;;;;;;5111260;27;21184;-47
2021/06/29 08:24:14;;;;;;;18.17;6.05;;;35.20;70.80;;;;;;5104873;27;20459;-47
2021/06/29 08:26:53;;;;;;;13.43;5.50;;;35.30;70.40;;;;;;5152312;27;20776;-47
2021/06/29 08:29:33;;;;;;;14.90;3.92;;;35.70;69.40;;;;;;5104461;27;20400;-47
2021/06/29 08:32:13;;;;;;;15.48;4.95;;;36.00;68.00;;;;;;5152461;27;20377;-47
2021/06/29 08:34:54;;;;;;;13.48;4.75;;;36.30;67.10;;;;;;5145468;27;20442;-47
2021/06/29 08:37:33;;;;;;;19.10;4.57;;;36.60;66.40;;;;;;5152512;27;20381;-47
2021/06/29 08:40:13;;;;;;;12.68;4.75;;;36.50;65.60;;;;;;5103299;27;20445;-47
2021/06/29 08:42:51;;;;;;;16.80;6.03;;;36.50;64.60;;;;;;5105409;27;1424690;-47
2021/06/29 08:45:31;;;;;;;15.18;3.85;;;36.60;63.70;;;;;;5102569;27;20385;-47
2021/06/29 08:48:11;;;;;;;19.98;5.20;;;36.60;62.80;;;;;;5109329;27;20413;-50
2021/06/29 08:50:50;;;;;;;24.63;5.55;;;36.70;64.10;;;;;;5142908;27;20377;-47
2021/06/29 08:53:30;;;;;;;20.02;4.85;;;36.30;66.90;;;;;;5108865;27;20398;-47
2021/06/29 08:56:15;;;;;;;17.70;4.40;;;36.20;66.90;;;;;;5184525;27;20435;-47
2021/06/29 08:58:54;;;;;;;10.95;4.03;;;36.30;67.20;;;;;;5105572;27;20389;-47
2021/06/29 09:01:34;;;;;;;15.20;5.53;;;36.30;66.20;;;;;;5122694;27;20882;-48
2021/06/29 09:04:14;;;;;;;23.75;5.68;;;36.50;66.60;;;;;;5103462;27;20447;-47
2021/06/29 09:06:54;;;;;;;18.20;5.07;;;36.70;65.20;;;;;;5151279;27;20389;-47
2021/06/29 09:09:34;;;;;;;21.42;5.72;;;37.00;65.40;;;;;;5083019;27;20397;-48
2021/06/29 09:12:13;;;;;;;18.42;4.25;;;37.10;65.10;;;;;;5109980;27;20413;-47
2021/06/29 09:14:53;;;;;;;22.30;5.85;;;37.30;64.70;;;;;;5144453;27;20396;-47
2021/06/29 09:17:38;;;;;;;19.95;5.57;;;37.00;65.20;;;;;;5151373;27;20426;-47
2021/06/29 09:20:39;;;;;;;15.98;5.55;;;36.60;66.00;;;;;;5089678;27;20967;-47
2021/06/29 09:23:33;;;;;;;12.15;5.13;;;36.70;67.20;;;;;;5087403;28;21057;-49
2021/06/29 09:26:15;;;;;;;16.25;5.25;;;36.80;71.20;;;;;;5141575;27;20424;-47
2021/06/29 09:28:57;;;;;;;19.98;5.53;;;36.80;73.00;;;;;;5104644;27;20397;-47
2021/06/29 09:31:38;;;;;;;13.70;4.53;;;36.90;73.80;;;;;;5151231;27;20923;-47
2021/06/29 09:34:17;;;;;;;14.68;5.40;;;37.00;73.90;;;;;;5103638;27;20493;-47
2021/06/29 09:36:56;;;;;;;18.52;4.97;;;37.00;73.70;;;;;;5151114;27;20402;-47
2021/06/29 09:39:36;;;;;;;9.27;4.30;;;37.00;74.50;;;;;;5144518;27;20390;-47
2021/06/29 09:42:25;;;;;;;12.20;4.93;;;37.00;74.20;;;;;;5122350;27;20389;-47
2021/06/29 09:45:25;;;;;;;14.60;5.70;;;37.20;74.00;;;;;;5157065;27;20460;-50
2021/06/29 09:48:08;;;;;;;11.85;4.70;;;37.10;75.10;;;;;;5150291;27;20373;-49
2021/06/29 09:50:52;;;;;;;18.05;5.60;;;36.90;75.40;;;;;;5142223;27;20765;-47
2021/06/29 09:53:32;;;;;;;13.73;5.90;;;36.80;75.50;;;;;;5099917;27;1485318;-48
2021/06/29 09:56:15;;;;;;;17.52;6.00;;;36.80;75.60;;;;;;5096270;27;20386;-48
2021/06/29 09:58:56;;;;;;;17.85;5.07;;;36.80;75.10;;;;;;5145610;27;20956;-47
2021/06/29 10:01:36;;;;;;;18.08;6.65;;;36.90;74.60;;;;;;5106341;27;20397;-47
2021/06/29 10:04:15;;;;;;;18.13;5.93;;;36.70;73.90;;;;;;5092021;27;1574598;-47
2021/06/29 10:06:54;;;;;;;20.13;6.05;;;36.70;73.10;;;;;;5085064;28;20446;-47
2021/06/29 10:09:34;;;;;;;16.98;5.57;;;36.40;73.50;;;;;;5103860;27;20396;-47
2021/06/29 10:12:24;;;;;;;15.10;6.00;;;36.50;72.50;;;;;;5151258;27;20410;-47
2021/06/29 10:15:03;;;;;;;19.60;5.85;;;36.50;72.40;;;;;;5144664;27;20438;-47
2021/06/29 10:17:43;;;;;;;17.52;4.60;;;36.70;72.00;;;;;;5110132;27;20445;-47
2021/06/29 10:20:27;;;;;;;13.32;5.28;;;36.60;70.90;;;;;;5138949;27;20790;-47
2021/06/29 10:23:04;;;;;;;13.35;4.18;;;36.70;71.00;;;;;;5103029;27;1437675;-47
2021/06/29 10:25:45;;;;;;;16.17;5.22;;;36.80;70.00;;;;;;5142133;27;20488;-47
2021/06/29 10:28:25;;;;;;;18.90;5.95;;;37.00;70.20;;;;;;5108201;27;20752;-47
2021/06/29 10:31:04;;;;;;;15.07;5.82;;;37.00;69.20;;;;;;5122247;27;20449;-47
2021/06/29 10:33:44;;;;;;;15.82;5.32;;;37.20;67.10;;;;;;5080927;28;20888;-47
2021/06/29 10:36:24;;;;;;;23.23;6.53;;;37.20;67.60;;;;;;5139929;27;20403;-48
2021/06/29 10:39:04;;;;;;;18.70;5.10;;;37.00;64.90;;;;;;5103609;27;20488;-47
2021/06/29 10:41:48;;;;;;;18.95;6.50;;;37.00;66.20;;;;;;5151322;27;20851;-47
2021/06/29 10:44:40;;;;;;;18.45;7.38;;;37.00;66.60;;;;;;5144585;27;20457;-47
2021/06/29 10:47:30;;;;;;;13.23;5.00;;;36.80;66.20;;;;;;5110781;27;20368;-47
2021/06/29 10:50:14;;;;;;;16.52;6.57;;;36.50;65.90;;;;;;5103721;27;20449;-47
2021/06/29 10:52:54;;;;;;;19.63;6.57;;;36.40;64.60;;;;;;5111113;27;20360;-47
2021/06/29 10:55:32;;;;;;;29.35;6.30;;;36.60;63.20;;;;;;5102489;27;20385;-47
2021/06/29 10:58:12;;;;;;;15.77;5.35;;;36.90;62.10;;;;;;5088812;28;20902;-46
2021/06/29 11:00:50;;;;;;;20.90;6.82;;;36.90;61.60;;;;;;5101801;27;20376;-50
2021/06/29 11:03:39;;;;;;;18.92;5.18;;;37.10;61.30;;;;;;5108479;27;20914;-47
2021/06/29 11:06:45;;;;;;;18.40;5.70;;;37.30;60.40;;;;;;5162336;27;20103;-47
2021/06/29 11:09:52;;;;;;;15.32;4.57;;;37.20;59.20;;;;;;5079588;28;20395;-47
2021/06/29 11:12:39;;;;;;;18.05;6.20;;;37.30;58.70;;;;;;5194266;27;20435;-47
2021/06/29 11:15:19;;;;;;;18.10;6.35;;;37.40;58.10;;;;;;5090454;27;20899;-47
2021/06/29 11:18:00;;;;;;;17.80;5.68;;;37.60;58.40;;;;;;5085781;28;20386;-47
2021/06/29 11:20:41;;;;;;;21.58;4.93;;;37.70;57.50;;;;;;5142876;27;20726;-47
2021/06/29 11:23:23;;;;;;;22.33;5.75;;;37.70;56.90;;;;;;5149826;27;20402;-47
2021/06/29 11:26:14;;;;;;;17.80;5.35;;;37.80;56.30;;;;;;5102799;27;20847;-46
2021/06/29 11:29:12;;;;;;;13.20;4.90;;;37.40;56.00;;;;;;5139696;27;20394;-47
2021/06/29 11:31:55;;;;;;;19.17;4.80;;;37.50;55.60;;;;;;5111001;27;20715;-46
2021/06/29 11:34:35;;;;;;;22.17;5.15;;;37.50;54.80;;;;;;5099881;27;20398;-47
2021/06/29 11:37:15;;;;;;;13.90;4.78;;;37.70;53.20;;;;;;5126400;27;20396;-47
2021/06/29 11:39:59;;;;;;;19.23;5.25;;;37.80;53.20;;;;;;5145569;27;20404;-47
2021/06/29 11:42:39;;;;;;;23.42;5.47;;;37.80;53.10;;;;;;5152410;27;20369;-48
2021/06/29 11:45:31;;;;;;;17.77;5.45;;;37.80;53.00;;;;;;5102124;27;20434;-47
2021/06/29 11:48:42;;;;;;;19.73;6.85;;;37.70;53.40;;;;;;5150448;27;20369;-47
2021/06/29 11:51:52;;;;;;;21.70;6.10;;;37.60;53.10;;;;;;5141004;27;20443;-49
2021/06/29 11:54:38;;;;;;;18.95;4.30;;;37.50;52.50;;;;;;5104653;27;20815;-47
2021/06/29 11:57:23;;;;;;;15.98;4.78;;;37.70;52.50;;;;;;5110761;27;20364;-46
2021/06/29 12:00:23;;;;;;;17.55;4.35;;;37.70;51.90;;;;;;5145570;27;20885;-46
2021/06/29 12:03:16;;;;;;;19.52;4.13;;;37.80;51.10;;;;;;5151394;27;20370;-47
2021/06/29 12:05:56;;;;;;;15.00;5.25;;;37.90;50.50;;;;;;5103564;27;20931;-47
2021/06/29 12:08:36;;;;;;;15.02;6.22;;;37.90;51.80;;;;;;5083009;28;20472;-46
2021/06/29 12:11:15;;;;;;;15.80;4.15;;;37.90;50.80;;;;;;5080376;27;20450;-46
2021/06/29 12:13:55;;;;;;;19.15;5.22;;;38.00;51.10;;;;;;5146274;27;20390;-47
2021/06/29 12:16:35;;;;;;;18.88;5.25;;;38.00;51.30;;;;;;5152216;27;20381;-47
2021/06/29 12:19:15;;;;;;;17.95;6.10;;;38.00;51.10;;;;;;5063667;28;20404;-47
2021/06/29 12:21:55;;;;;;;15.02;5.75;;;37.90;51.80;;;;;;5111099;27;20796;-48
2021/06/29 12:24:37;;;;;;;16.42;4.88;;;37.90;51.10;;;;;;5145507;27;20390;-47
2021/06/29 12:27:17;;;;;;;16.63;4.25;;;38.00;50.40;;;;;;5069730;28;20366;-47
2021/06/29 12:29:56;;;;;;;24.23;6.18;;;38.00;50.20;;;;;;5103413;27;20446;-47
2021/06/29 12:32:42;;;;;;;17.55;4.75;;;38.10;51.90;;;;;;5151337;27;20381;-47
2021/06/29 12:35:22;;;;;;;21.63;4.53;;;38.10;51.90;;;;;;5142245;27;20454;-47
2021/06/29 12:38:05;;;;;;;16.45;4.53;;;38.20;51.90;;;;;;5150275;27;20377;-47
2021/06/29 12:40:47;;;;;;;16.73;5.20;;;38.30;51.40;;;;;;5091725;27;1465812;-47
2021/06/29 12:43:38;;;;;;;27.40;5.40;;;38.20;51.50;;;;;;5108229;27;20397;-47
2021/06/29 12:46:23;;;;;;;14.45;5.20;;;38.20;50.90;;;;;;5074885;28;20932;-47
2021/06/29 12:49:05;;;;;;;15.32;4.85;;;38.10;50.90;;;;;;5078698;28;20392;-47
2021/06/29 12:52:07;;;;;;;17.42;4.97;;;38.00;50.70;;;;;;5110262;27;20360;-48
2021/06/29 12:54:50;;;;;;;17.67;4.95;;;37.80;50.10;;;;;;5103613;27;20957;-47
2021/06/29 12:57:30;;;;;;;15.68;4.45;;;37.80;50.20;;;;;;5069592;28;20375;-47
2021/06/29 13:00:13;;;;;;;15.20;4.47;;;37.80;50.10;;;;;;5143775;27;20446;-47
2021/06/29 13:02:53;;;;;;;18.83;6.15;;;37.90;50.10;;;;;;5110256;27;20869;-48
2021/06/29 13:05:33;;;;;;;15.77;4.43;;;37.90;50.20;;;;;;5076432;28;20392;-47
2021/06/29 13:08:15;;;;;;;17.38;5.32;;;37.90;49.00;;;;;;5108287;27;20441;-47
2021/06/29 13:10:55;;;;;;;19.45;5.32;;;38.00;48.80;;;;;;5164695;27;20373;-47
2021/06/29 13:13:35;;;;;;;26.35;7.03;;;37.80;48.40;;;;;;5107119;27;20400;-47
2021/06/29 13:16:19;;;;;;;14.50;4.35;;;37.90;48.50;;;;;;5104295;28;20407;-47
2021/06/29 13:19:00;;;;;;;21.02;5.40;;;37.90;48.70;;;;;;5103908;27;20510;-47
2021/06/29 13:21:38;;;;;;;18.23;5.25;;;37.90;48.10;;;;;;5103361;27;1452511;-47
2021/06/29 13:24:18;;;;;;;24.83;5.72;;;37.90;48.00;;;;;;5103799;27;20470;-47
2021/06/29 13:27:03;;;;;;;16.67;3.97;;;38.00;47.70;;;;;;5151282;27;20393;-47
2021/06/29 13:29:43;;;;;;;16.83;6.45;;;38.00;47.50;;;;;;5103574;27;20396;-48
2021/06/29 13:32:22;;;;;;;20.02;6.00;;;38.00;47.60;;;;;;5151145;27;20418;-47
2021/06/29 13:35:17;;;;;;;14.80;5.10;;;37.90;47.80;;;;;;5142636;27;20481;-47
2021/06/29 13:37:59;;;;;;;18.17;5.22;;;37.90;48.00;;;;;;5100028;27;1493794;-47
2021/06/29 13:40:43;;;;;;;21.83;4.75;;;37.90;47.80;;;;;;5060604;28;20845;-47
2021/06/29 13:43:25;;;;;;;20.55;4.75;;;37.90;47.60;;;;;;5108055;27;20388;-47
2021/06/29 13:46:20;;;;;;;16.02;4.97;;;37.80;47.50;;;;;;5142990;27;20396;-47
2021/06/29 13:48:58;;;;;;;12.18;4.47;;;37.70;47.50;;;;;;5094353;27;1523710;-47
2021/06/29 13:51:38;;;;;;;13.73;4.90;;;37.70;47.80;;;;;;5151300;27;20385;-49
2021/06/29 13:54:19;;;;;;;13.35;5.05;;;37.60;47.90;;;;;;5103758;27;20400;-47
2021/06/29 13:56:59;;;;;;;22.40;6.20;;;37.60;55.10;;;;;;5151232;27;20378;-48
2021/06/29 13:59:40;;;;;;;20.52;5.82;;;37.30;64.30;;;;;;5103545;27;20411;-46
2021/06/29 14:02:39;;;;;;;16.90;5.65;;;37.20;66.00;;;;;;5110243;27;20384;-46
2021/06/29 14:05:33;;;;;;;23.58;6.40;;;37.10;67.10;;;;;;5113526;27;20397;-46
2021/06/29 14:08:25;;;;;;;17.38;6.18;;;37.00;66.90;;;;;;5083287;28;20736;-47
2021/06/29 14:11:20;;;;;;;20.27;5.35;;;36.80;67.10;;;;;;5081369;28;20386;-47
2021/06/29 14:14:00;;;;;;;20.58;6.38;;;36.60;67.30;;;;;;5145063;27;20399;-47
2021/06/29 14:16:39;;;;;;;23.67;5.95;;;36.60;66.20;;;;;;5152271;27;20381;-46
2021/06/29 14:19:18;;;;;;;22.23;7.45;;;36.40;65.60;;;;;;5104179;27;20439;-47
2021/06/29 14:21:59;;;;;;;21.48;6.90;;;36.30;62.20;;;;;;5152326;27;20377;-46
2021/06/29 14:24:50;;;;;;;18.83;6.35;;;36.30;62.00;;;;;;5084025;28;20992;-48
2021/06/29 14:27:28;;;;;;;22.35;7.47;;;36.30;62.60;;;;;;5102698;27;1488720;-49
2021/06/29 14:30:08;;;;;;;18.83;6.68;;;36.20;64.40;;;;;;5095508;27;20390;-48
2021/06/29 14:32:48;;;;;;;19.67;6.43;;;36.20;65.00;;;;;;5152051;27;20430;-47
2021/06/29 14:35:28;;;;;;;14.55;5.65;;;36.20;65.10;;;;;;5099303;27;20410;-47
2021/06/29 14:38:09;;;;;;;19.77;6.15;;;36.20;64.30;;;;;;5103097;27;1458247;-48
2021/06/29 14:40:49;;;;;;;16.13;6.05;;;36.10;66.40;;;;;;5143035;27;20388;-47